Flight Track Log - Related Links

Times and Time Zones

All times are in EDT time to prevent confusion due to time zone crossing. See the N42HN flight status page for this flight to view local times or setup timezone preferences in your user account.

Time Position Orientation Groundspeed Altitude Reporting Facility
EDT Latitude Longitude Course Direction KTS MPH feet Rate Location/Type
Mon 07:48:56 PM 35.0431 -106.5767 354° North 159 183 6,400  Level Albuquerque Center
Mon 07:50:23 PM 35.1131 -106.5856 354° North 245 282 9,900 2,635 Climbing Albuquerque Center
Mon 07:51:24 PM 35.1853 -106.5964 353° North 267 307 12,900 2,951 Climbing Albuquerque Center
Mon 07:52:25 PM 35.1997 -106.4875 81° East 305 351 15,900 2,754 Climbing Albuquerque Center
Mon 07:53:26 PM 35.1958 -106.3825 93° East 311 358 18,500 2,537 Climbing Albuquerque Center
Mon 07:54:28 PM 35.2047 -106.2769 84° East 312 359 21,100 2,293 Climbing Albuquerque Center
Mon 07:55:29 PM 35.2078 -106.1583 88° East 320 368 23,200 1,820 Climbing Albuquerque Center
Mon 07:56:30 PM 35.2039 -106.0378 92° East 350 403 24,800 1,672 Climbing Albuquerque Center
Mon 07:57:31 PM 35.2153 -105.9158 83° East 357 411 26,600 1,707 Climbing Albuquerque Center
Mon 07:58:33 PM 35.2128 -105.7883 91° East 369 425 28,300 1,632 Climbing Albuquerque Center
Mon 07:59:36 PM 35.2217 -105.6647 85° East 365 420 30,000 1,355 Climbing Albuquerque Center
Mon 08:00:37 PM 35.2211 -105.5367 90° East 369 425 31,100 1,024 Climbing Albuquerque Center
Mon 08:01:39 PM 35.2231 -105.4028 89° East 385 443 32,100 1,073 Climbing Albuquerque Center
Mon 08:02:40 PM 35.2272 -105.2650 88° East 397 457 33,300 1,180 Climbing Albuquerque Center
Mon 08:03:41 PM 35.2319 -105.1289 88° East 398 458 34,500 1,082 Climbing Albuquerque Center
Mon 08:04:42 PM 35.2331 -104.9889 89° East 404 465 35,500 976 Climbing Albuquerque Center
Mon 08:05:44 PM 35.2308 -104.8486 91° East 408 470 36,500 927 Climbing Albuquerque Center
Mon 08:06:45 PM 35.2339 -104.6831 89° East 413 475 37,400 836 Climbing Albuquerque Center
Mon 08:07:46 PM 35.2372 -104.5581 88° East 417 480 38,200 732 Climbing Albuquerque Center
Mon 08:08:48 PM 35.2411 -104.4136 88° East 423 487 38,900 683 Climbing Albuquerque Center
Mon 08:09:49 PM 35.2419 -104.2683 90° East 426 490 39,600 689 Climbing Albuquerque Center
Mon 08:10:50 PM 35.2447 -104.0931 89° East 429 494 40,300 683 Climbing Albuquerque Center
Mon 08:11:52 PM 35.2489 -103.9472 88° East 431 496 41,000 341 Climbing Albuquerque Center
Mon 08:12:53 PM 35.2503 -103.8133 89° East 436 502 41,000  Level Albuquerque Center
Mon 08:13:54 PM 35.2206 -103.6619 103° East 463 533 41,000  Level Albuquerque Center
Mon 08:14:56 PM 35.1744 -103.4858 108° East 464 534 41,000  Level Albuquerque Center
Mon 08:15:57 PM 35.1222 -103.3386 113° Southeast 465 535 41,000  Level Albuquerque Center
Mon 08:16:59 PM 35.0842 -103.1869 107° East 465 535 41,000  Level Albuquerque Center
Mon 08:18:00 PM 35.0367 -103.0378 111° Southeast 467 537 41,000  Level Albuquerque Center
Mon 08:19:01 PM 34.9897 -102.8886 111° Southeast 467 537 41,000  Level Albuquerque Center
Mon 08:20:03 PM 34.9497 -102.7378 108° East 467 537 41,000  Level Albuquerque Center
Mon 08:21:04 PM 34.8961 -102.5858 113° Southeast 467 537 41,000  Level Albuquerque Center
Mon 08:22:06 PM 34.8531 -102.4389 110° East 465 535 41,000  Level Albuquerque Center
Mon 08:23:07 PM 34.8103 -102.2908 109° East 469 540 41,000  Level Albuquerque Center
Mon 08:24:08 PM 34.7608 -102.1461 113° Southeast 468 539 41,000  Level Albuquerque Center
Mon 08:25:10 PM 34.7203 -101.9986 108° East 466 536 41,000  Level Albuquerque Center
Mon 08:26:11 PM 34.6625 -101.8233 112° Southeast 470 541 41,000  Level Albuquerque Center
Mon 08:27:13 PM 34.6144 -101.6772 112° Southeast 470 541 41,000  Level Albuquerque Center
Mon 08:28:14 PM 34.5711 -101.5272 109° East 474 545 41,000  Level Albuquerque Center
Mon 08:29:16 PM 34.5192 -101.3831 114° Southeast 474 545 41,000  Level Albuquerque Center
Mon 08:30:17 PM 34.4767 -101.2322 109° East 473 544 41,000  Level Albuquerque Center
Mon 08:31:19 PM 34.4281 -101.0853 112° Southeast 475 547 41,000  Level Albuquerque Center
Mon 08:32:20 PM 34.3772 -100.9375 113° Southeast 477 549 41,000  Level Albuquerque Center
Mon 08:33:11 PM 34.3322 -100.7911 110° East 474 545 41,000  Level Fort Worth Center
Mon 08:34:10 PM 34.2819 -100.6433 112° Southeast 479 551 41,000  Level Fort Worth Center
Mon 08:35:10 PM 34.2356 -100.4933 110° East 479 551 41,000  Level Fort Worth Center
Mon 08:36:11 PM 34.1886 -100.3586 113° Southeast 479 551 41,000  Level Fort Worth Center
Mon 08:37:10 PM 34.1378 -100.2114 113° Southeast 479 551 41,000  Level Fort Worth Center
Mon 08:38:11 PM 34.0931 -100.0594 110° East 479 551 41,000  Level Fort Worth Center
Mon 08:39:10 PM 34.0378 -99.9097 114° Southeast 479 551 41,000  Level Fort Worth Center
Mon 08:40:11 PM 33.9928 -99.7608 110° East 479 551 41,000  Level Fort Worth Center
Mon 08:41:11 PM 33.9369 -99.6117 114° Southeast 479 551 41,000  Level Fort Worth Center
Mon 08:42:11 PM 33.8894 -99.4628 111° Southeast 484 557 41,000  Level Fort Worth Center
Mon 08:43:11 PM 33.8397 -99.3114 112° Southeast 484 557 41,000  Level Fort Worth Center
Mon 08:44:10 PM 33.7856 -99.1628 114° Southeast 479 551 41,000  Level Fort Worth Center
Mon 08:45:10 PM 33.7356 -98.9969 110° East 479 551 41,000  Level Fort Worth Center
Mon 08:46:10 PM 33.6789 -98.8486 115° Southeast 479 551 41,000  Level Fort Worth Center
Mon 08:47:11 PM 33.6303 -98.6983 111° Southeast 479 551 41,000  Level Fort Worth Center
Mon 08:48:10 PM 33.5756 -98.5453 113° Southeast 479 551 41,000  Level Fort Worth Center
Mon 08:49:10 PM 33.5183 -98.3950 115° Southeast 488 562 41,000  Level Fort Worth Center
Mon 08:50:10 PM 33.4672 -98.2428 112° Southeast 488 562 41,000  Level Fort Worth Center
Mon 08:51:11 PM 33.4139 -98.0928 113° Southeast 483 556 41,000  Level Fort Worth Center
Mon 08:52:10 PM 33.3625 -97.9408 112° Southeast 488 562 41,000  Level Fort Worth Center
Mon 08:53:10 PM 33.3044 -97.7889 115° Southeast 488 562 41,000  Level Fort Worth Center
Mon 08:54:11 PM 33.2528 -97.6369 112° Southeast 494 568 41,000  Level Fort Worth Center
Mon 08:55:11 PM 33.1967 -97.4831 114° Southeast 494 568 41,000  Level Fort Worth Center
Mon 08:56:10 PM 33.1422 -97.3292 113° Southeast 500 575 41,000  Level Fort Worth Center
Mon 08:57:10 PM 33.0900 -97.1731 112° Southeast 500 575 41,000  Level Fort Worth Center
Mon 08:58:10 PM 33.0311 -97.0417 118° Southeast 499 574 41,000  Level Fort Worth Center
Mon 08:59:10 PM 32.9722 -96.8736 113° Southeast 494 568 41,000  Level Fort Worth Center
Mon 09:00:10 PM 32.9278 -96.7500 113° Southeast 500 575 41,000  Level Fort Worth Center
Mon 09:01:11 PM 32.8642 -96.5872 115° Southeast 495 570 41,000  Level Fort Worth Center
Mon 09:02:10 PM 32.8128 -96.4344 112° Southeast 495 570 41,000  Level Fort Worth Center
Mon 09:03:11 PM 32.7553 -96.2869 115° Southeast 500 575 41,000  Level Fort Worth Center
Mon 09:04:10 PM 32.6975 -96.1347 114° Southeast 500 575 41,000  Level Fort Worth Center
Mon 09:05:10 PM 32.6417 -95.9825 114° Southeast 495 570 41,000  Level Fort Worth Center
Mon 09:06:10 PM 32.5814 -95.8381 116° Southeast 495 570 41,000  Level Fort Worth Center
Mon 09:07:11 PM 32.5292 -95.6861 112° Southeast 495 570 41,000  Level Fort Worth Center
Mon 09:08:10 PM 32.4708 -95.5369 115° Southeast 500 575 41,000  Level Fort Worth Center
Mon 09:09:11 PM 32.4122 -95.3906 115° Southeast 494 568 41,000  Level Fort Worth Center
Mon 09:10:10 PM 32.3553 -95.2419 114° Southeast 489 563 41,000  Level Fort Worth Center
Mon 09:11:10 PM 32.2944 -95.0933 116° Southeast 494 568 41,000  Level Fort Worth Center
Mon 09:12:11 PM 32.2347 -94.9256 113° Southeast 508 585 41,000  Level Fort Worth Center
Mon 09:13:10 PM 32.1842 -94.7967 115° Southeast 498 573 41,000  Level Fort Worth Center
Mon 09:14:10 PM 32.1164 -94.6564 120° Southeast 486 559 41,000  Level Fort Worth Center
Mon 09:15:11 PM 32.0461 -94.4992 118° Southeast 486 559 41,000  Level Fort Worth Center
Mon 09:16:10 PM 31.9803 -94.3592 119° Southeast 486 559 41,000  Level Fort Worth Center
Mon 09:17:10 PM 31.9119 -94.2172 120° Southeast 492 566 41,000  Level Fort Worth Center
Mon 09:18:11 PM 31.8478 -94.0753 118° Southeast 492 566 41,000  Level Fort Worth Center
Mon 09:18:51 PM 31.8003 -93.9797 120° Southeast 493 567 41,000  Level Houston Center
Mon 09:19:52 PM 31.7417 -93.8539 119° Southeast 494 568 41,000  Level Houston Center
Mon 09:20:54 PM 31.6739 -93.7153 120° Southeast 490 564 41,000  Level Houston Center
Mon 09:21:55 PM 31.6014 -93.5597 119° Southeast 490 564 41,000  Level Houston Center
Mon 09:22:56 PM 31.5242 -93.4300 125° Southeast 485 558 41,000  Level Houston Center
Mon 09:23:58 PM 31.4536 -93.2919 121° Southeast 493 567 41,000  Level Houston Center
Mon 09:24:59 PM 31.3758 -93.1597 125° Southeast 488 562 41,000 -1,435 Level Houston Center
Mon 09:27:02 PM 31.2269 -92.8847 122° Southeast 501 577 36,600 -1,924 Descending Houston Center
Mon 09:28:03 PM 31.1483 -92.7525 125° Southeast 495 570 35,100 -780 Descending Houston Center
Mon 09:29:05 PM 31.0753 -92.6167 122° Southeast 491 565 35,000 -683 Descending Houston Center
Mon 09:30:06 PM 30.9950 -92.4744 123° Southeast 478 550 33,700 -2,016 Descending Houston Center
Mon 09:31:07 PM 30.9183 -92.3453 125° Southeast 484 557 30,900 -2,537 Descending Houston Center
Mon 09:32:09 PM 30.8450 -92.2100 122° Southeast 496 571 28,500 -2,439 Descending Houston Center
Mon 09:33:10 PM 30.7589 -92.0611 124° Southeast 466 536 25,900 -2,262 Descending Houston Center
Mon 09:34:11 PM 30.6914 -91.9408 123° Southeast 450 518 23,900 -1,918 Descending Houston Center
Mon 09:35:12 PM 30.6242 -91.8236 124° Southeast 439 505 22,000 -1,951 Descending Houston Center
Mon 09:36:14 PM 30.5583 -91.7083 124° Southeast 432 497 19,900 -1,610 Descending Houston Center
Mon 09:37:15 PM 30.4925 -91.5928 123° Southeast 430 495 18,700 -1,102 Descending Houston Center
Mon 09:37:52 PM 30.4533 -91.5222 123° Southeast 433 498 18,100 -796 Descending Houston Center
Mon 09:38:53 PM 30.3883 -91.4061 123° Southeast 438 504 17,400 -984 Descending Houston Center
Mon 09:40:00 PM 30.3639 -91.2406 100° East 450 518 16,000 -1,388 Descending Houston Center
Mon 09:40:54 PM 30.3297 -91.1211 108° East 420 483 14,600 -1,488 Descending Houston Center
Mon 09:42:01 PM 30.2908 -90.9853 108° East 410 472 13,000 -1,438 Descending Houston Center
Mon 09:42:55 PM 30.2608 -90.8731 107° East 391 450 11,700 -1,043 Descending Houston Center
Mon 09:43:56 PM 30.2328 -90.7561 105° East 378 435 11,000 -344 Descending Houston Center
Mon 09:44:57 PM 30.2069 -90.6489 106° East 340 391 11,000 -595 Level Houston Center
Mon 09:45:57 PM 30.1833 -90.5486 105° East 308 354 9,800 -1,835 Descending Houston Center
Mon 09:46:58 PM 30.1578 -90.4606 109° East 282 325 7,300 -1,388 Descending Houston Center
Mon 09:47:58 PM 30.1283 -90.3800 113° Southeast 269 310 7,000 -200 Descending Houston Center
Mon 09:48:28 PM 30.1169 -90.3383 108° East 279 321 7,000  Level Houston Center
Mon 09:48:59 PM 30.1028 -90.2992 113° Southeast 266 306 7,000 -197 Level Houston Center
Mon 09:49:29 PM 30.0942 -90.2558 103° East 273 314 6,800 -984 Descending Houston Center
Mon 09:50:00 PM 30.0794 -90.2161 113° Southeast 266 306 6,000 -787 Descending Houston Center
Mon 09:50:30 PM 30.0714 -90.1781 104° East 268 308 6,000 -1,500 Level Houston Center
Mon 09:51:00 PM 30.0647 -90.1447 103° East 220 253 4,500 -3,049 Descending Houston Center
Mon 09:51:31 PM 30.0694 -90.1086 81° East 240 276 2,900 -2,361 Descending Houston Center
Mon 09:52:01 PM 30.0792 -90.0767 71° East 202 232 2,100 -1,377 Descending Houston Center
Mon 09:52:32 PM 30.0864 -90.0517 72° East 206 237 1,500 -978 Descending Houston Center
Mon 09:53:33 PM 30.0564 -90.0169 135° Southeast 174 200 600 -885 Descending Houston Center
Mon 09:55:00 PM 30.0333 -90.0167 101° East  Level FlightAware Approximate
Mon 10:02:00 PM 30.0424 -90.0283 101° East  Level Estimated

Login

Don't have an account? Register now (free) for customized features, flight alerts, and more!